createdAt,value
2017-01-17T00:00:16.988Z,11.63
2017-01-17T00:00:57.487Z,11.72
2017-01-17T00:01:37.973Z,11.63
2017-01-17T00:02:18.469Z,11.63
2017-01-17T00:02:58.957Z,11.63
2017-01-17T00:03:39.446Z,11.24
2017-01-17T00:04:19.926Z,11.44
2017-01-17T00:05:00.427Z,11.54
2017-01-17T00:05:40.913Z,11.15
2017-01-17T00:06:21.413Z,11.44
2017-01-17T00:07:01.912Z,11.54
2017-01-17T00:07:42.410Z,11.63
2017-01-17T00:08:22.914Z,11.54
2017-01-17T00:09:03.413Z,11.54
2017-01-17T00:09:43.907Z,11.34
2017-01-17T00:10:24.409Z,11.15
2017-01-17T00:11:04.895Z,11.34
2017-01-17T00:11:45.386Z,11.34
2017-01-17T00:12:25.879Z,11.34
2017-01-17T00:13:06.359Z,11.44
2017-01-17T00:13:46.867Z,11.34
2017-01-17T00:14:27.354Z,11.44
2017-01-17T00:15:07.858Z,11.34
2017-01-17T00:15:48.345Z,11.44
2017-01-17T00:16:28.831Z,11.54
2017-01-17T00:17:09.320Z,11.54
2017-01-17T00:17:49.802Z,11.34
2017-01-17T00:18:30.313Z,11.63
2017-01-17T00:19:10.803Z,11.34
2017-01-17T00:19:51.293Z,11.54
2017-01-17T00:20:31.805Z,11.34
2017-01-17T00:21:12.307Z,11.44
2017-01-17T00:21:52.805Z,11.44
2017-01-17T00:22:33.311Z,11.44
2017-01-17T00:23:13.803Z,11.34
2017-01-17T00:23:54.292Z,11.44
2017-01-17T00:24:34.796Z,11.54
2017-01-17T00:25:15.287Z,11.44
2017-01-17T00:25:55.788Z,11.34
2017-01-17T00:26:36.269Z,11.44
2017-01-17T00:27:16.754Z,11.44
2017-01-17T00:27:57.241Z,11.34
2017-01-17T00:28:37.747Z,11.05
2017-01-17T00:29:18.240Z,11.44
2017-01-17T00:29:58.733Z,11.34
2017-01-17T00:30:39.228Z,11.15
2017-01-17T00:31:19.703Z,11.05
2017-01-17T00:32:00.194Z,11.34
2017-01-17T00:32:40.850Z,11.34
2017-01-17T00:33:21.340Z,11.34
2017-01-17T00:34:01.832Z,11.44
2017-01-17T00:34:42.313Z,11.34
2017-01-17T00:35:22.801Z,11.54
2017-01-17T00:36:03.294Z,11.34
2017-01-17T00:36:43.788Z,11.34
2017-01-17T00:37:24.279Z,11.34
2017-01-17T00:38:04.788Z,11.44
2017-01-17T00:38:45.408Z,11.24
2017-01-17T00:39:25.906Z,11.44
2017-01-17T00:40:06.409Z,11.24
2017-01-17T00:40:46.896Z,11.15
2017-01-17T00:41:27.393Z,11.24
2017-01-17T00:42:07.879Z,11.44
2017-01-17T00:42:48.371Z,11.44
2017-01-17T00:43:28.871Z,11.24
2017-01-17T00:44:09.357Z,11.05
2017-01-17T00:44:49.854Z,11.24
2017-01-17T00:45:30.359Z,11.34
2017-01-17T00:46:10.852Z,11.15
2017-01-17T00:46:51.354Z,11.15
2017-01-17T00:47:31.842Z,11.54
2017-01-17T00:48:12.342Z,11.54
2017-01-17T00:48:52.831Z,11.34
2017-01-17T00:49:33.324Z,11.24
2017-01-17T00:50:13.813Z,11.34
2017-01-17T00:50:54.430Z,11.44
2017-01-17T00:51:34.919Z,11.44
2017-01-17T00:52:15.422Z,11.24
2017-01-17T00:52:55.931Z,11.15
2017-01-17T00:53:36.422Z,11.15
2017-01-17T00:54:16.915Z,11.15
2017-01-17T00:54:57.429Z,11.15
2017-01-17T00:55:37.919Z,11.34
2017-01-17T00:56:18.412Z,11.44
2017-01-17T00:56:58.925Z,11.24
2017-01-17T00:57:39.414Z,11.24
2017-01-17T00:58:19.909Z,11.34
2017-01-17T00:59:00.409Z,11.15
2017-01-17T00:59:40.912Z,11.34
2017-01-17T01:00:21.411Z,11.05
2017-01-17T01:01:01.906Z,11.34
2017-01-17T01:01:42.412Z,11.15
2017-01-17T01:02:22.918Z,11.15
2017-01-17T01:03:03.409Z,11.24
2017-01-17T01:03:43.905Z,11.34
2017-01-17T01:04:24.403Z,11.15
2017-01-17T01:05:04.908Z,11.44
2017-01-17T01:05:45.406Z,11.24
2017-01-17T01:06:25.901Z,11.34
2017-01-17T01:07:06.400Z,11.44
2017-01-17T01:07:46.943Z,11.33
2017-01-17T01:08:27.432Z,11.15
2017-01-17T01:09:07.926Z,11.05
2017-01-17T01:09:48.411Z,11.24
2017-01-17T01:10:28.921Z,11.34
2017-01-17T01:11:09.407Z,11.54
2017-01-17T01:11:49.915Z,11.24
2017-01-17T01:12:30.407Z,11.15
2017-01-17T01:13:10.893Z,11.44
2017-01-17T01:13:51.387Z,11.34
2017-01-17T01:14:31.874Z,11.24
2017-01-17T01:15:12.372Z,11.24
2017-01-17T01:15:52.859Z,11.24
2017-01-17T01:16:33.353Z,11.24
2017-01-17T01:17:13.848Z,11.24
2017-01-17T01:17:54.342Z,11.34
2017-01-17T01:18:34.843Z,11.34
2017-01-17T01:19:15.356Z,11.24
2017-01-17T01:19:55.842Z,11.15
2017-01-17T01:20:36.336Z,11.24
2017-01-17T01:21:16.841Z,11.24
2017-01-17T01:21:57.351Z,11.34
2017-01-17T01:22:37.838Z,11.24
2017-01-17T01:23:18.336Z,11.24
2017-01-17T01:23:58.835Z,11.24
2017-01-17T01:24:39.345Z,11.24
2017-01-17T01:25:19.841Z,11.15
2017-01-17T01:26:00.346Z,11.05
2017-01-17T01:26:40.835Z,11.54
2017-01-17T01:27:21.330Z,11.05
2017-01-17T01:28:01.831Z,11.05
2017-01-17T01:28:42.341Z,11.33
2017-01-17T01:29:22.829Z,11.24
2017-01-17T01:30:03.344Z,11.34
2017-01-17T01:30:43.832Z,11.24
2017-01-17T01:31:24.450Z,11.44
2017-01-17T01:32:04.935Z,11.44
2017-01-17T01:32:45.425Z,11.33
2017-01-17T01:33:25.907Z,11.24
2017-01-17T01:34:06.398Z,11.34
2017-01-17T01:34:46.891Z,11.34
2017-01-17T01:35:27.445Z,11.44
2017-01-17T01:36:07.928Z,11.15
2017-01-17T01:36:48.444Z,11.33
2017-01-17T01:37:28.936Z,11.34
2017-01-17T01:38:09.425Z,11.15
2017-01-17T01:38:49.915Z,11.24
2017-01-17T01:39:30.402Z,11.24
2017-01-17T01:40:10.902Z,11.24
2017-01-17T01:40:51.382Z,11.43
2017-01-17T01:41:31.880Z,11.33
2017-01-17T01:42:12.370Z,11.15
2017-01-17T01:42:52.862Z,11.24
2017-01-17T01:43:33.346Z,11.33
2017-01-17T01:44:13.846Z,11.34
2017-01-17T01:44:54.331Z,11.24
2017-01-17T01:45:34.845Z,11.24
2017-01-17T01:46:15.337Z,11.24
2017-01-17T01:46:55.819Z,11.33
2017-01-17T01:47:36.326Z,11.24
2017-01-17T01:48:16.814Z,11.33
2017-01-17T01:48:57.335Z,11.34
2017-01-17T01:49:37.821Z,11.24
2017-01-17T01:50:18.322Z,11.34
2017-01-17T01:50:58.810Z,11.24
2017-01-17T01:51:39.328Z,11.24
2017-01-17T01:52:19.812Z,11.15
2017-01-17T01:53:00.318Z,11.24
2017-01-17T01:53:40.809Z,11.15
2017-01-17T01:54:21.303Z,11.24
2017-01-17T01:56:34.089Z,11.34
2017-01-17T01:57:14.579Z,11.24
2017-01-17T01:57:55.068Z,11.33
2017-01-17T01:58:35.564Z,11.33
2017-01-17T01:59:16.043Z,11.05
2017-01-17T01:59:56.529Z,11.05
2017-01-17T02:00:37.026Z,11.15
2017-01-17T02:01:17.516Z,11.15
2017-01-17T02:01:58.010Z,11.15
2017-01-17T02:02:38.489Z,11.15
2017-01-17T02:03:18.992Z,11.24
2017-01-17T02:03:59.485Z,11.15
2017-01-17T02:04:39.990Z,11.15
2017-01-17T02:05:20.485Z,11.15
2017-01-17T02:06:00.965Z,11.33
2017-01-17T02:06:41.454Z,11.05
2017-01-17T02:07:21.936Z,11.15
2017-01-17T02:08:02.422Z,11.33
2017-01-17T02:08:42.912Z,11.33
2017-01-17T02:09:23.402Z,11.24
2017-01-17T02:10:03.903Z,11.33
2017-01-17T02:10:44.391Z,11.43
2017-01-17T02:11:24.879Z,11.24
2017-01-17T02:12:05.368Z,11.24
2017-01-17T02:12:45.852Z,11.24
2017-01-17T02:13:26.354Z,11.33
2017-01-17T02:14:06.852Z,11.24
2017-01-17T02:14:47.342Z,11.05
2017-01-17T02:15:27.839Z,11.15
2017-01-17T02:16:08.315Z,11.05
2017-01-17T02:16:48.806Z,11.24
2017-01-17T02:17:29.298Z,11.24
2017-01-17T02:18:09.791Z,11.05
2017-01-17T02:18:50.285Z,11.15
2017-01-17T02:19:30.771Z,11.33
2017-01-17T02:20:11.261Z,10.95
2017-01-17T02:20:51.743Z,11.34
2017-01-17T02:21:32.244Z,11.15
2017-01-17T02:22:12.738Z,11.05
2017-01-17T02:22:53.242Z,11.24
2017-01-17T02:23:33.733Z,11.15
2017-01-17T02:24:14.234Z,10.85
2017-01-17T02:24:54.732Z,10.85
2017-01-17T02:25:35.284Z,10.95
2017-01-17T02:26:15.795Z,11.05
2017-01-17T02:26:56.283Z,10.85
2017-01-17T02:27:36.794Z,10.86
2017-01-17T02:28:17.282Z,10.85
2017-01-17T02:28:57.953Z,10.76
2017-01-17T02:29:38.384Z,11.15
2017-01-17T02:30:18.878Z,10.66
2017-01-17T02:30:59.372Z,10.86
2017-01-17T02:31:39.852Z,11.05
2017-01-17T02:32:20.357Z,11.05
2017-01-17T02:33:00.833Z,10.85
2017-01-17T02:33:41.333Z,10.96
2017-01-17T02:34:21.824Z,11.05
2017-01-17T02:35:02.328Z,11.15
2017-01-17T02:35:42.839Z,10.96
2017-01-17T02:36:23.325Z,11.15
2017-01-17T02:37:03.816Z,11.05
2017-01-17T02:37:44.297Z,10.95
2017-01-17T02:38:24.786Z,10.76
2017-01-17T02:39:05.283Z,10.95
2017-01-17T02:39:45.783Z,10.85
2017-01-17T02:40:26.277Z,10.95
2017-01-17T02:41:06.786Z,10.85
2017-01-17T02:41:47.272Z,10.85
2017-01-17T02:42:27.767Z,10.85
2017-01-17T02:43:08.249Z,10.76
2017-01-17T02:43:48.736Z,10.85
2017-01-17T02:44:29.212Z,10.95
2017-01-17T02:45:09.706Z,10.95
2017-01-17T02:45:50.227Z,10.76
2017-01-17T02:46:30.718Z,10.76
2017-01-17T02:47:11.229Z,11.05
2017-01-17T02:47:51.714Z,10.85
2017-01-17T02:48:32.206Z,10.95
2017-01-17T02:49:12.691Z,11.15
2017-01-17T02:49:53.180Z,11.05
2017-01-17T02:50:33.980Z,10.77
2017-01-17T02:51:14.471Z,10.76
2017-01-17T02:51:54.962Z,10.95
2017-01-17T02:52:35.481Z,10.85
2017-01-17T02:53:16.374Z,11.05
2017-01-17T02:53:56.853Z,10.76
2017-01-17T02:54:37.342Z,10.95
2017-01-17T02:55:17.830Z,10.67
2017-01-17T02:55:58.321Z,11.05
2017-01-17T02:56:38.820Z,10.85
2017-01-17T02:57:19.313Z,10.66
2017-01-17T02:57:59.827Z,11.05
2017-01-17T02:58:40.319Z,11.05
2017-01-17T02:59:20.841Z,11.05
2017-01-17T03:00:01.328Z,10.85
2017-01-17T03:00:41.834Z,10.76
2017-01-17T03:01:22.316Z,11.05
2017-01-17T03:02:02.814Z,10.85
2017-01-17T03:02:43.313Z,10.76
2017-01-17T03:03:23.809Z,10.67
2017-01-17T03:04:04.291Z,10.85
2017-01-17T03:04:44.780Z,10.67
2017-01-17T03:05:25.268Z,10.77
2017-01-17T03:06:05.762Z,10.76
2017-01-17T03:06:46.246Z,10.77
2017-01-17T03:07:26.737Z,10.77
2017-01-17T03:08:07.226Z,10.76
2017-01-17T03:08:47.715Z,11.05
2017-01-17T03:09:28.205Z,10.77
2017-01-17T03:10:08.714Z,10.66
2017-01-17T03:10:49.204Z,10.76
2017-01-17T03:11:29.690Z,10.95
2017-01-17T03:12:10.179Z,10.95
2017-01-17T03:12:50.657Z,10.85
2017-01-17T03:13:31.144Z,11.15
2017-01-17T03:14:11.644Z,10.85
2017-01-17T03:14:52.126Z,10.47
2017-01-17T03:15:32.613Z,10.85
2017-01-17T03:16:13.098Z,10.76
2017-01-17T03:16:53.592Z,10.67
2017-01-17T03:17:34.089Z,10.77
2017-01-17T03:18:14.572Z,10.47
2017-01-17T03:18:55.063Z,10.67
2017-01-17T03:19:35.552Z,10.67
2017-01-17T03:20:16.056Z,10.57
2017-01-17T03:20:56.542Z,10.96
2017-01-17T03:21:37.047Z,10.67
2017-01-17T03:22:17.540Z,10.57
2017-01-17T03:22:58.022Z,10.66
2017-01-17T03:23:38.513Z,10.67
2017-01-17T03:24:19.008Z,10.77
2017-01-17T03:24:59.499Z,10.77
2017-01-17T03:25:39.993Z,10.57
2017-01-17T03:26:20.497Z,10.67
2017-01-17T03:27:00.988Z,10.67
2017-01-17T03:27:41.474Z,11.15
2017-01-17T03:28:21.966Z,10.67
2017-01-17T03:29:02.443Z,10.57
2017-01-17T03:29:42.941Z,10.57
2017-01-17T03:30:23.427Z,10.57
2017-01-17T03:31:03.913Z,10.57
2017-01-17T03:31:44.399Z,10.47
2017-01-17T03:32:24.883Z,10.47
2017-01-17T03:33:05.386Z,10.57
2017-01-17T03:33:45.877Z,10.76
2017-01-17T03:34:26.375Z,11.15
2017-01-17T03:35:06.877Z,11.15
2017-01-17T03:35:47.386Z,10.76
2017-01-17T03:36:27.876Z,10.77
2017-01-17T03:37:08.391Z,10.67
2017-01-17T03:37:48.873Z,11.05
2017-01-17T03:38:29.365Z,10.77
2017-01-17T03:39:09.864Z,11.05
2017-01-17T03:39:50.383Z,10.77
2017-01-17T03:40:31.016Z,10.85
2017-01-17T03:41:11.500Z,10.66
2017-01-17T03:41:51.984Z,10.57
2017-01-17T03:42:32.481Z,10.66
2017-01-17T03:43:12.968Z,11.05
2017-01-17T03:43:53.481Z,10.67
2017-01-17T03:44:33.969Z,10.47
2017-01-17T03:45:14.470Z,10.66
2017-01-17T03:45:54.960Z,10.57
2017-01-17T03:46:35.448Z,10.76
2017-01-17T03:47:15.930Z,10.57
2017-01-17T03:47:56.417Z,10.67
2017-01-17T03:48:36.928Z,10.66
2017-01-17T03:49:17.412Z,10.77
2017-01-17T03:49:57.904Z,10.66
2017-01-17T03:50:38.389Z,10.76
2017-01-17T03:51:18.875Z,10.47
2017-01-17T03:51:59.370Z,10.66
2017-01-17T03:52:39.860Z,10.66
2017-01-17T03:53:20.373Z,10.66
2017-01-17T03:54:00.863Z,10.57
2017-01-17T03:54:41.378Z,10.47
2017-01-17T03:55:21.860Z,10.67
2017-01-17T03:56:02.370Z,10.57
2017-01-17T03:56:42.860Z,10.76
2017-01-17T03:57:23.354Z,10.66
2017-01-17T03:58:03.854Z,10.57
2017-01-17T03:58:44.352Z,10.76
2017-01-17T03:59:24.832Z,10.66
2017-01-17T04:00:05.326Z,10.47
2017-01-17T04:00:45.829Z,10.47
2017-01-17T04:01:26.314Z,10.57
2017-01-17T04:02:06.812Z,10.67
2017-01-17T04:02:47.296Z,10.66
2017-01-17T04:03:27.817Z,10.76
2017-01-17T04:04:08.299Z,10.57
2017-01-17T04:04:48.796Z,10.76
2017-01-17T04:05:29.298Z,10.95
2017-01-17T04:06:09.780Z,10.47
2017-01-17T04:08:22.695Z,10.77
2017-01-17T04:09:03.175Z,10.66
2017-01-17T04:09:43.676Z,10.76
2017-01-17T04:10:24.170Z,10.66
2017-01-17T04:11:04.655Z,10.67
2017-01-17T04:11:45.151Z,10.57
2017-01-17T04:12:25.646Z,10.77
2017-01-17T04:13:06.125Z,10.76
2017-01-17T04:13:46.611Z,10.47
2017-01-17T04:14:27.103Z,10.76
2017-01-17T04:15:07.598Z,11.05
2017-01-17T04:15:48.101Z,10.66
2017-01-17T04:16:28.612Z,10.66
2017-01-17T04:17:09.100Z,10.66
2017-01-17T04:17:49.609Z,10.76
2017-01-17T04:18:30.100Z,10.66
2017-01-17T04:19:10.584Z,10.77
2017-01-17T04:19:51.074Z,10.47
2017-01-17T04:20:31.559Z,10.76
2017-01-17T04:21:12.055Z,10.57
2017-01-17T04:21:52.546Z,10.77
2017-01-17T04:22:33.042Z,10.67
2017-01-17T04:23:13.524Z,10.67
2017-01-17T04:23:54.006Z,10.47
2017-01-17T04:24:34.502Z,10.47
2017-01-17T04:25:14.991Z,10.57
2017-01-17T04:25:55.487Z,10.66
2017-01-17T04:26:35.969Z,10.57
2017-01-17T04:27:16.467Z,10.76
2017-01-17T04:27:56.965Z,10.76
2017-01-17T04:28:37.455Z,10.66
2017-01-17T04:29:17.950Z,10.66
2017-01-17T04:29:58.438Z,10.57
2017-01-17T04:30:38.934Z,10.57
2017-01-17T04:31:19.433Z,10.77
2017-01-17T04:31:59.934Z,10.67
2017-01-17T04:32:40.436Z,10.77
2017-01-17T04:33:20.921Z,10.57
2017-01-17T04:34:01.409Z,10.66
2017-01-17T04:34:41.895Z,10.67
2017-01-17T04:35:22.390Z,10.57
2017-01-17T04:36:02.877Z,10.38
2017-01-17T04:36:43.377Z,10.47
2017-01-17T04:37:23.874Z,10.76
2017-01-17T04:38:04.374Z,10.76
2017-01-17T04:38:44.866Z,10.76
2017-01-17T04:39:25.356Z,10.57
2017-01-17T04:40:05.846Z,10.76
2017-01-17T04:40:46.329Z,10.85
2017-01-17T04:41:26.836Z,10.76
2017-01-17T04:42:07.325Z,10.76
2017-01-17T04:42:47.814Z,10.76
2017-01-17T04:43:28.300Z,10.66
2017-01-17T04:44:08.776Z,10.76
2017-01-17T04:44:49.266Z,10.76
2017-01-17T04:45:29.766Z,10.76
2017-01-17T04:46:10.261Z,10.47
2017-01-17T04:46:50.747Z,10.76
2017-01-17T04:47:31.229Z,10.47
2017-01-17T04:48:11.725Z,10.47
2017-01-17T04:48:52.215Z,10.76
2017-01-17T04:49:32.708Z,10.67
2017-01-17T04:50:13.196Z,10.76
2017-01-17T04:50:53.691Z,10.67
2017-01-17T04:51:34.183Z,10.57
2017-01-17T04:52:14.661Z,10.38
2017-01-17T04:52:55.172Z,10.57
2017-01-17T04:53:35.668Z,10.38
2017-01-17T04:54:16.167Z,10.38
2017-01-17T04:54:56.660Z,10.47
2017-01-17T04:55:37.163Z,10.47
2017-01-17T04:56:17.652Z,10.76
2017-01-17T04:56:58.149Z,10.66
2017-01-17T04:57:38.646Z,10.47
2017-01-17T04:58:19.134Z,10.76
2017-01-17T04:58:59.614Z,10.76
2017-01-17T04:59:40.110Z,10.57
2017-01-17T05:00:20.612Z,10.66
2017-01-17T05:01:01.099Z,10.76
2017-01-17T05:01:41.615Z,10.57
2017-01-17T05:02:22.103Z,10.47
2017-01-17T05:03:02.593Z,10.66
2017-01-17T05:03:43.077Z,10.47
2017-01-17T05:04:23.566Z,10.76
2017-01-17T05:05:04.061Z,10.47
2017-01-17T05:05:44.547Z,10.85
2017-01-17T05:06:25.042Z,10.76
2017-01-17T05:07:05.546Z,10.66
2017-01-17T05:07:46.035Z,10.66
2017-01-17T05:08:26.518Z,10.47
2017-01-17T05:09:07.008Z,10.47
2017-01-17T05:09:47.503Z,10.57
2017-01-17T05:10:27.981Z,10.47
2017-01-17T05:11:08.469Z,10.47
2017-01-17T05:11:48.957Z,10.47
2017-01-17T05:12:29.485Z,10.47
2017-01-17T05:13:09.981Z,10.66
2017-01-17T05:13:50.469Z,10.76
2017-01-17T05:14:30.958Z,10.66
2017-01-17T05:15:11.441Z,10.76
2017-01-17T05:15:51.945Z,10.76
2017-01-17T05:16:32.440Z,10.76
2017-01-17T05:17:12.933Z,10.66
2017-01-17T05:17:53.424Z,10.57
2017-01-17T05:18:33.909Z,10.66
2017-01-17T05:19:14.546Z,10.66
2017-01-17T05:19:55.029Z,10.66
2017-01-17T05:20:35.526Z,10.76
2017-01-17T05:21:16.013Z,10.57
2017-01-17T05:21:56.498Z,10.47
2017-01-17T05:22:36.985Z,10.66
2017-01-17T05:23:17.492Z,10.66
2017-01-17T05:23:57.978Z,10.66
2017-01-17T05:24:38.472Z,10.57
2017-01-17T05:25:18.953Z,10.47
2017-01-17T05:25:59.459Z,10.57
2017-01-17T05:26:40.087Z,10.76
2017-01-17T05:27:20.587Z,10.57
2017-01-17T05:28:01.075Z,10.66
2017-01-17T05:28:41.575Z,10.66
2017-01-17T05:29:22.140Z,10.66
2017-01-17T05:30:02.635Z,10.57
2017-01-17T05:30:43.132Z,10.66
2017-01-17T05:31:23.624Z,10.47
2017-01-17T05:32:04.117Z,10.47
2017-01-17T05:32:44.616Z,10.47
2017-01-17T05:33:25.097Z,10.38
2017-01-17T05:34:05.592Z,10.57
2017-01-17T05:34:46.073Z,10.76
2017-01-17T05:35:26.580Z,10.47
2017-01-17T05:36:07.071Z,10.57
2017-01-17T05:36:47.560Z,10.76
2017-01-17T05:37:28.045Z,10.47
2017-01-17T05:38:08.540Z,10.66
2017-01-17T05:38:49.029Z,10.57
2017-01-17T05:39:29.518Z,10.38
2017-01-17T05:40:10.014Z,10.47
2017-01-17T05:40:50.507Z,10.47
2017-01-17T05:41:31.021Z,10.66
2017-01-17T05:42:11.514Z,10.38
2017-01-17T05:42:52.027Z,10.47
2017-01-17T05:43:32.512Z,10.57
2017-01-17T05:44:13.006Z,10.66
2017-01-17T05:44:53.506Z,10.76
2017-01-17T05:45:33.986Z,10.66
2017-01-17T05:46:14.475Z,10.66
2017-01-17T05:46:54.957Z,10.47
2017-01-17T05:47:35.451Z,10.66
2017-01-17T05:48:15.932Z,10.57
2017-01-17T05:48:56.417Z,10.57
2017-01-17T05:49:36.916Z,10.66
2017-01-17T05:50:17.402Z,10.76
2017-01-17T05:50:57.899Z,10.66
2017-01-17T05:51:38.393Z,10.57
2017-01-17T05:52:18.883Z,10.66
2017-01-17T05:52:59.365Z,10.66
2017-01-17T05:53:39.850Z,10.57
2017-01-17T05:54:20.360Z,10.57
2017-01-17T05:55:00.849Z,10.66
2017-01-17T05:55:41.337Z,10.47
2017-01-17T05:56:21.820Z,10.47
2017-01-17T05:57:02.308Z,10.57
2017-01-17T05:57:42.802Z,10.57
2017-01-17T05:58:23.293Z,10.66
2017-01-17T05:59:03.767Z,10.66
2017-01-17T05:59:44.264Z,10.47
2017-01-17T06:00:24.769Z,10.66
2017-01-17T06:01:05.261Z,10.66
2017-01-17T06:01:45.746Z,10.47
2017-01-17T06:02:26.304Z,10.76
2017-01-17T06:03:06.800Z,10.57
2017-01-17T06:03:47.289Z,10.57
2017-01-17T06:04:27.810Z,10.47
2017-01-17T06:05:08.290Z,10.57
2017-01-17T06:05:48.812Z,10.66
2017-01-17T06:06:29.301Z,10.66
2017-01-17T06:07:09.795Z,10.76
2017-01-17T06:07:50.284Z,10.66
2017-01-17T06:08:30.783Z,10.76
2017-01-17T06:09:11.261Z,10.57
2017-01-17T06:09:51.749Z,10.66
2017-01-17T06:10:32.243Z,10.66
2017-01-17T06:11:12.733Z,10.66
2017-01-17T06:11:53.225Z,10.76
2017-01-17T06:12:33.707Z,10.66
2017-01-17T06:13:14.203Z,10.66
2017-01-17T06:13:54.701Z,10.57
2017-01-17T06:14:35.187Z,10.57
2017-01-17T06:15:15.684Z,10.38
2017-01-17T06:15:56.176Z,10.47
2017-01-17T06:16:36.667Z,10.38
2017-01-17T06:17:17.152Z,10.66
2017-01-17T06:17:57.625Z,10.57
2017-01-17T06:18:38.177Z,10.66
2017-01-17T06:19:18.720Z,10.66
2017-01-17T06:19:59.219Z,10.66
2017-01-17T06:20:39.704Z,10.66
2017-01-17T06:21:20.182Z,10.66
2017-01-17T06:22:00.687Z,10.47
2017-01-17T06:22:41.170Z,10.57
2017-01-17T06:23:21.666Z,10.76
2017-01-17T06:24:02.146Z,10.47
2017-01-17T06:24:42.638Z,10.66
2017-01-17T06:25:23.144Z,10.66
2017-01-17T06:26:03.626Z,10.66
2017-01-17T06:26:44.135Z,10.66
2017-01-17T06:27:24.618Z,10.66
2017-01-17T06:28:05.107Z,10.66
2017-01-17T06:28:45.594Z,10.66
2017-01-17T06:29:26.082Z,10.47
2017-01-17T06:30:06.589Z,10.47
2017-01-17T06:30:47.074Z,10.57
2017-01-17T06:31:27.565Z,10.66
2017-01-17T06:32:08.056Z,10.76
2017-01-17T06:32:48.553Z,10.57
2017-01-17T06:33:29.034Z,10.66
2017-01-17T06:34:09.531Z,10.57
2017-01-17T06:34:50.026Z,10.66
2017-01-17T06:35:30.521Z,10.57
2017-01-17T06:36:11.010Z,10.76
2017-01-17T06:36:51.498Z,10.57
2017-01-17T06:37:32.010Z,10.66
2017-01-17T06:38:12.503Z,10.47
2017-01-17T06:38:52.990Z,10.66
2017-01-17T06:39:33.475Z,10.47
2017-01-17T06:40:13.952Z,10.47
2017-01-17T06:40:54.459Z,10.76
2017-01-17T06:41:34.959Z,10.47
2017-01-17T06:42:15.433Z,10.57
2017-01-17T06:42:55.919Z,10.66
2017-01-17T06:43:36.405Z,10.47
2017-01-17T06:44:16.905Z,10.57
2017-01-17T06:44:57.391Z,10.57
2017-01-17T06:45:37.895Z,10.66
2017-01-17T06:46:18.390Z,10.76
2017-01-17T06:46:58.889Z,10.76
2017-01-17T06:47:39.384Z,10.47
2017-01-17T06:48:19.885Z,10.57
2017-01-17T06:49:00.386Z,10.66
2017-01-17T06:49:40.885Z,10.57
2017-01-17T06:50:21.381Z,10.47
2017-01-17T06:51:01.885Z,10.57
2017-01-17T06:51:42.364Z,10.57
2017-01-17T06:52:22.863Z,10.47
2017-01-17T06:53:03.349Z,10.66
2017-01-17T06:53:43.832Z,10.75
2017-01-17T06:54:24.328Z,10.76
2017-01-17T06:55:04.821Z,10.66
2017-01-17T06:55:45.311Z,10.76
2017-01-17T06:56:25.803Z,10.76
2017-01-17T06:57:06.288Z,10.76
2017-01-17T06:57:46.786Z,10.47
2017-01-17T06:58:27.277Z,10.47
2017-01-17T06:59:07.775Z,10.47
2017-01-17T06:59:48.267Z,10.47
2017-01-17T07:00:28.759Z,10.47
2017-01-17T07:01:09.252Z,10.66
2017-01-17T07:01:49.747Z,10.57
2017-01-17T07:02:30.249Z,10.76
2017-01-17T07:03:10.740Z,10.66
2017-01-17T07:03:51.229Z,10.47
2017-01-17T07:04:31.719Z,10.76
2017-01-17T07:05:12.214Z,10.76
2017-01-17T07:05:52.712Z,10.66
2017-01-17T07:06:33.228Z,10.66
2017-01-17T07:07:13.713Z,10.57
2017-01-17T07:07:54.215Z,10.47
2017-01-17T07:08:34.718Z,10.76
2017-01-17T07:09:15.228Z,10.76
2017-01-17T07:09:55.716Z,10.85
2017-01-17T07:10:36.230Z,10.66
2017-01-17T07:11:16.715Z,10.57
2017-01-17T07:11:57.228Z,10.76
2017-01-17T07:12:37.722Z,10.85
2017-01-17T07:13:18.207Z,10.76
2017-01-17T07:13:58.716Z,10.66
2017-01-17T07:14:39.206Z,10.66
2017-01-17T07:15:19.706Z,10.66
2017-01-17T07:17:17.418Z,10.76
2017-01-17T07:17:57.895Z,10.66
2017-01-17T07:18:38.408Z,10.66
2017-01-17T07:19:18.890Z,10.47
2017-01-17T07:19:59.370Z,10.66
2017-01-17T07:20:39.877Z,10.38
2017-01-17T07:21:20.978Z,10.57
2017-01-17T07:22:00.869Z,10.57
2017-01-17T07:22:41.363Z,10.57
2017-01-17T07:23:21.874Z,10.47
2017-01-17T07:24:02.372Z,10.47
2017-01-17T07:24:42.859Z,10.47
2017-01-17T07:25:23.392Z,10.66
2017-01-17T07:26:03.891Z,10.57
2017-01-17T07:26:44.390Z,10.47
2017-01-17T07:27:24.882Z,10.47
2017-01-17T07:28:05.399Z,10.76
2017-01-17T07:28:45.885Z,10.66
2017-01-17T07:29:26.364Z,10.66
2017-01-17T07:30:06.851Z,10.66
2017-01-17T07:30:47.351Z,10.38
2017-01-17T07:31:27.839Z,10.47
2017-01-17T07:32:08.330Z,10.47
2017-01-17T07:32:48.828Z,10.85
2017-01-17T07:33:29.325Z,10.77
2017-01-17T07:34:09.814Z,10.47
2017-01-17T07:34:50.310Z,10.47
2017-01-17T07:35:30.796Z,10.66
2017-01-17T07:36:11.343Z,10.85
2017-01-17T07:36:51.823Z,10.85
2017-01-17T07:37:32.338Z,10.86
2017-01-17T07:38:12.805Z,10.66
2017-01-17T07:38:53.458Z,10.66
2017-01-17T07:39:33.961Z,10.57
2017-01-17T07:40:14.458Z,10.57
2017-01-17T07:40:54.957Z,10.76
2017-01-17T07:41:35.448Z,10.57
2017-01-17T07:42:15.945Z,10.76
2017-01-17T07:42:56.425Z,10.66
2017-01-17T07:43:36.915Z,10.57
2017-01-17T07:44:17.415Z,10.47
2017-01-17T07:44:57.907Z,10.57
2017-01-17T07:45:38.401Z,10.66
2017-01-17T07:46:18.894Z,10.66
2017-01-17T07:46:59.383Z,10.86
2017-01-17T07:47:39.863Z,10.57
2017-01-17T07:48:20.351Z,10.77
2017-01-17T07:49:00.846Z,10.67
2017-01-17T07:49:41.335Z,10.66
2017-01-17T07:50:21.840Z,10.85
2017-01-17T07:51:02.332Z,10.66
2017-01-17T07:51:42.832Z,10.47
2017-01-17T07:52:23.329Z,10.57
2017-01-17T07:53:03.802Z,11.05
2017-01-17T07:53:44.292Z,10.66
2017-01-17T07:54:24.788Z,10.47
2017-01-17T07:55:05.267Z,10.57
2017-01-17T07:55:45.755Z,10.85
2017-01-17T07:56:26.241Z,10.57
2017-01-17T07:57:06.737Z,10.57
2017-01-17T07:57:47.229Z,10.47
2017-01-17T07:58:27.723Z,10.57
2017-01-17T07:59:08.203Z,10.67
2017-01-17T07:59:48.688Z,10.96
2017-01-17T08:00:29.183Z,10.77
2017-01-17T08:01:09.672Z,10.57
2017-01-17T08:01:50.168Z,10.57
2017-01-17T08:02:30.666Z,10.57
2017-01-17T08:03:11.163Z,10.77
2017-01-17T08:03:51.669Z,10.77
2017-01-17T08:04:32.166Z,10.47
2017-01-17T08:05:12.660Z,10.67
2017-01-17T08:05:53.155Z,10.77
2017-01-17T08:06:33.643Z,10.67
2017-01-17T08:07:14.119Z,10.76
2017-01-17T08:07:54.602Z,10.67
2017-01-17T08:08:35.092Z,10.67
2017-01-17T08:09:15.595Z,10.67
2017-01-17T08:09:56.090Z,10.77
2017-01-17T08:10:36.586Z,10.77
2017-01-17T08:11:17.088Z,10.67
2017-01-17T08:11:57.619Z,10.57
2017-01-17T08:12:38.575Z,10.77
2017-01-17T08:13:19.219Z,10.47
2017-01-17T08:14:00.153Z,10.57
2017-01-17T08:14:40.914Z,10.67
2017-01-17T08:15:22.151Z,10.47
2017-01-17T08:16:02.939Z,10.86
2017-01-17T08:16:43.870Z,10.86
2017-01-17T08:17:25.107Z,10.77
2017-01-17T08:18:06.178Z,10.77
2017-01-17T08:18:47.320Z,10.77
2017-01-17T08:19:28.015Z,10.77
2017-01-17T08:20:08.816Z,10.67
2017-01-17T08:20:49.500Z,10.47
2017-01-17T08:21:29.986Z,10.57
2017-01-17T08:22:10.491Z,10.47
2017-01-17T08:22:50.976Z,10.77
2017-01-17T08:23:31.458Z,10.77
2017-01-17T08:24:11.946Z,10.67
2017-01-17T08:24:52.425Z,10.47
2017-01-17T08:25:32.916Z,10.77
2017-01-17T08:26:13.437Z,10.57
2017-01-17T08:26:53.930Z,10.57
2017-01-17T08:27:34.426Z,10.47
2017-01-17T08:28:14.933Z,10.57
2017-01-17T08:28:55.420Z,10.77
2017-01-17T08:29:35.931Z,10.57
2017-01-17T08:30:16.420Z,10.47
2017-01-17T08:30:56.913Z,10.57
2017-01-17T08:31:37.405Z,10.47
2017-01-17T08:32:17.895Z,10.67
2017-01-17T08:32:58.383Z,10.77
2017-01-17T08:33:38.890Z,10.57
2017-01-17T08:34:19.378Z,10.38
2017-01-17T08:34:59.870Z,10.47
2017-01-17T08:35:40.375Z,10.47
2017-01-17T08:36:20.864Z,10.47
2017-01-17T08:37:01.372Z,10.67
2017-01-17T08:37:41.859Z,10.47
2017-01-17T08:38:22.376Z,10.47
2017-01-17T08:39:02.859Z,10.58
2017-01-17T08:39:43.353Z,10.68
2017-01-17T08:40:23.837Z,10.47
2017-01-17T08:41:04.320Z,10.58
2017-01-17T08:41:44.815Z,10.58
2017-01-17T08:42:25.304Z,10.48
2017-01-17T08:43:05.794Z,10.47
2017-01-17T08:43:46.279Z,10.47
2017-01-17T08:44:26.766Z,10.48
2017-01-17T08:45:07.257Z,10.58
2017-01-17T08:45:47.749Z,10.58